createdAt,value
2023-04-03T00:01:44.925Z,102414.13
2023-04-03T00:04:15.128Z,102417.25
2023-04-03T00:06:45.308Z,102412.44
2023-04-03T00:09:14.132Z,102423.53
2023-04-03T00:11:42.099Z,102412.44
2023-04-03T00:14:10.524Z,102417.69
2023-04-03T00:16:38.983Z,102421.06
2023-04-03T00:19:07.473Z,102416.19
2023-04-03T00:21:35.955Z,102416.63
2023-04-03T00:24:04.699Z,102423.72
2023-04-03T00:26:32.593Z,102423.97
2023-04-03T00:29:01.038Z,102428.13
2023-04-03T00:31:30.551Z,102427.25
2023-04-03T00:33:57.924Z,102425.41
2023-04-03T00:36:26.357Z,102426.25
2023-04-03T00:38:54.707Z,102437.75
2023-04-03T00:41:23.329Z,102429.16
2023-04-03T00:43:51.536Z,102428.31
2023-04-03T00:46:19.993Z,102427.25
2023-04-03T00:48:50.986Z,102427.88
2023-04-03T00:51:27.291Z,102433.13
2023-04-03T00:54:08.118Z,102424.09
2023-04-03T00:56:40.225Z,102428.72
2023-04-03T00:59:26.458Z,102432.06
2023-04-03T01:01:58.852Z,102429.13
2023-04-03T01:04:39.629Z,102429.94
2023-04-03T01:07:16.706Z,102429.31
2023-04-03T01:09:54.025Z,102434.16
2023-04-03T01:12:31.794Z,102432.84
2023-04-03T01:15:14.966Z,102428.84
2023-04-03T01:17:50.988Z,102430.31
2023-04-03T01:20:37.079Z,102428.38
2023-04-03T01:23:10.050Z,102432.19
2023-04-03T01:25:51.364Z,102427.38
2023-04-03T01:28:36.703Z,102434.47
2023-04-03T01:31:23.510Z,102435.28
2023-04-03T01:33:55.528Z,102438.44
2023-04-03T01:36:32.091Z,102435.94
2023-04-03T01:39:02.679Z,102432.38
2023-04-03T01:41:33.403Z,102440.34
2023-04-03T01:44:02.843Z,102435.91
2023-04-03T01:46:33.377Z,102439.03
2023-04-03T01:49:03.680Z,102439.03
2023-04-03T01:51:34.307Z,102443.69
2023-04-03T01:54:04.473Z,102441.34
2023-04-03T01:56:34.257Z,102444.06
2023-04-03T01:59:04.072Z,102445.31
2023-04-03T02:01:33.904Z,102446.97
2023-04-03T02:04:04.046Z,102449.25
2023-04-03T02:06:33.839Z,102453.00
2023-04-03T02:09:05.243Z,102452.97
2023-04-03T02:11:34.589Z,102455.84
2023-04-03T02:14:04.396Z,102452.91
2023-04-03T02:16:34.785Z,102451.00
2023-04-03T02:19:04.405Z,102450.00
2023-04-03T02:21:34.284Z,102454.91
2023-04-03T02:24:04.351Z,102458.66
2023-04-03T02:26:33.989Z,102458.25
2023-04-03T02:29:04.157Z,102458.66
2023-04-03T02:31:34.058Z,102455.06
2023-04-03T02:34:04.125Z,102458.16
2023-04-03T02:36:33.868Z,102460.47
2023-04-03T02:39:05.102Z,102461.91
2023-04-03T02:41:36.584Z,102465.75
2023-04-03T02:44:12.625Z,102468.06
2023-04-03T02:46:40.620Z,102485.38
2023-04-03T02:49:08.836Z,102473.88
2023-04-03T02:51:37.684Z,102482.19
2023-04-03T02:54:06.242Z,102489.72
2023-04-03T02:56:34.699Z,102484.69
2023-04-03T02:59:03.425Z,102491.56
2023-04-03T03:01:33.567Z,102487.41
2023-04-03T03:04:02.940Z,102491.25
2023-04-03T03:06:31.202Z,102485.38
2023-04-03T03:09:00.165Z,102493.78
2023-04-03T03:11:28.335Z,102490.81
2023-04-03T03:13:58.416Z,102486.88
2023-04-03T03:16:25.696Z,102484.81
2023-04-03T03:18:54.065Z,102492.13
2023-04-03T03:21:22.607Z,102491.47
2023-04-03T03:23:50.849Z,102499.47
2023-04-03T03:26:19.410Z,102503.25
2023-04-03T03:28:47.684Z,102502.56
2023-04-03T03:31:16.483Z,102505.31
2023-04-03T03:33:44.537Z,102502.09
2023-04-03T03:36:13.762Z,102503.72
2023-04-03T03:38:42.001Z,102513.72
2023-04-03T03:41:10.419Z,102512.88
2023-04-03T03:43:39.636Z,102505.09
2023-04-03T03:46:07.572Z,102510.28
2023-04-03T03:48:36.456Z,102504.84
2023-04-03T03:51:04.689Z,102510.06
2023-04-03T03:53:32.856Z,102504.63
2023-04-03T03:56:01.308Z,102509.69
2023-04-03T03:58:29.711Z,102507.22
2023-04-03T04:00:58.058Z,102503.44
2023-04-03T04:03:26.550Z,102508.41
2023-04-03T04:05:54.979Z,102501.72
2023-04-03T04:08:24.085Z,102504.84
2023-04-03T04:10:51.980Z,102502.50
2023-04-03T04:13:20.433Z,102501.50
2023-04-03T04:15:48.640Z,102504.59
2023-04-03T04:18:17.175Z,102509.00
2023-04-03T04:20:47.418Z,102505.94
2023-04-03T04:23:19.833Z,102507.34
2023-04-03T04:25:51.089Z,102502.63
2023-04-03T04:28:21.463Z,102509.00
2023-04-03T04:30:51.663Z,102507.91
2023-04-03T04:33:21.804Z,102508.72
2023-04-03T04:35:52.997Z,102511.69
2023-04-03T04:38:23.212Z,102512.94
2023-04-03T04:40:53.315Z,102526.97
2023-04-03T04:43:23.463Z,102527.78
2023-04-03T04:46:12.723Z,102524.47
2023-04-03T04:48:43.064Z,102525.88
2023-04-03T04:51:13.568Z,102528.38
2023-04-03T04:53:44.283Z,102535.06
2023-04-03T04:56:14.283Z,102538.00
2023-04-03T04:58:44.000Z,102538.38
2023-04-03T05:01:14.051Z,102538.91
2023-04-03T05:03:44.161Z,102537.00
2023-04-03T05:06:14.270Z,102544.78
2023-04-03T05:08:44.025Z,102536.47
2023-04-03T05:11:13.900Z,102534.59
2023-04-03T05:13:43.731Z,102536.03
2023-04-03T05:16:13.620Z,102545.50
2023-04-03T05:18:43.782Z,102540.53
2023-04-03T05:21:13.705Z,102538.47
2023-04-03T05:23:43.925Z,102542.66
2023-04-03T05:26:13.866Z,102539.75
2023-04-03T05:28:43.682Z,102544.81
2023-04-03T05:31:14.800Z,102538.13
2023-04-03T05:33:44.895Z,102554.34
2023-04-03T05:36:14.637Z,102556.06
2023-04-03T05:38:44.904Z,102549.41
2023-04-03T05:41:16.571Z,102553.22
2023-04-03T05:43:46.553Z,102563.97
2023-04-03T05:46:20.508Z,102563.97
2023-04-03T05:48:50.392Z,102559.63
2023-04-03T05:51:29.946Z,102560.50
2023-04-03T05:54:20.589Z,102557.84
2023-04-03T05:56:52.086Z,102573.22
2023-04-03T05:59:23.309Z,102572.63
2023-04-03T06:01:53.407Z,102575.81
2023-04-03T06:04:23.390Z,102577.66
2023-04-03T06:06:58.709Z,102581.66
2023-04-03T06:09:30.326Z,102590.28
2023-04-03T06:11:59.869Z,102589.63
2023-04-03T06:14:28.814Z,102592.38
2023-04-03T06:17:00.703Z,102584.59
2023-04-03T06:19:32.106Z,102586.25
2023-04-03T06:22:02.673Z,102581.22
2023-04-03T06:24:33.962Z,102587.28
2023-04-03T06:27:04.848Z,102590.16
2023-04-03T06:29:35.085Z,102589.91
2023-04-03T06:32:05.626Z,102593.63
2023-04-03T06:34:36.569Z,102596.91
2023-04-03T06:37:07.414Z,102593.56
2023-04-03T06:39:37.755Z,102601.69
2023-04-03T06:42:17.116Z,102594.34
2023-04-03T06:44:47.408Z,102597.16
2023-04-03T06:47:18.389Z,102605.16
2023-04-03T06:49:47.279Z,102606.97
2023-04-03T06:52:15.694Z,102612.94
2023-04-03T06:54:44.159Z,102620.41
2023-04-03T06:57:12.551Z,102620.06
2023-04-03T06:59:41.390Z,102624.63
2023-04-03T07:02:13.923Z,102625.38
2023-04-03T07:04:44.227Z,102625.84
2023-04-03T07:07:14.424Z,102631.31
2023-04-03T07:09:45.291Z,102627.47
2023-04-03T07:12:18.756Z,102644.25
2023-04-03T07:14:48.920Z,102631.41
2023-04-03T07:17:19.187Z,102635.13
2023-04-03T07:19:49.369Z,102641.06
2023-04-03T07:22:19.775Z,102642.63
2023-04-03T07:24:50.018Z,102636.75
2023-04-03T07:27:20.772Z,102641.84
2023-04-03T07:29:51.028Z,102645.81
2023-04-03T07:32:21.275Z,102644.66
2023-04-03T07:34:51.511Z,102649.63
2023-04-03T07:37:21.733Z,102656.38
2023-04-03T07:39:52.097Z,102652.88
2023-04-03T07:42:22.560Z,102650.59
2023-04-03T07:44:52.703Z,102648.16
2023-04-03T07:47:23.360Z,102651.94
2023-04-03T07:49:53.512Z,102655.81
2023-04-03T07:52:24.072Z,102656.31
2023-04-03T07:54:54.173Z,102656.69
2023-04-03T07:57:24.376Z,102655.34
2023-04-03T07:59:55.117Z,102662.97
2023-04-03T08:02:25.771Z,102653.34
2023-04-03T08:04:56.488Z,102658.41
2023-04-03T08:07:26.984Z,102657.69
2023-04-03T08:09:57.397Z,102666.09
2023-04-03T08:12:29.716Z,102654.41
2023-04-03T08:15:02.468Z,102658.53
2023-04-03T08:17:32.762Z,102658.94
2023-04-03T08:20:07.960Z,102659.91
2023-04-03T08:22:38.433Z,102662.56
2023-04-03T08:25:09.701Z,102667.56
2023-04-03T08:27:39.232Z,102657.16
2023-04-03T08:30:10.315Z,102643.97
2023-04-03T08:32:43.048Z,102649.63
2023-04-03T08:35:13.306Z,102668.59
2023-04-03T08:37:42.943Z,102651.44
2023-04-03T08:40:18.379Z,102657.09
2023-04-03T08:43:23.646Z,102646.19
2023-04-03T08:46:03.798Z,102648.41
2023-04-03T08:48:44.369Z,102648.25
2023-04-03T08:51:21.937Z,102649.41
2023-04-03T08:54:16.185Z,102645.34
2023-04-03T08:56:46.499Z,102654.38
2023-04-03T08:59:31.116Z,102645.38
2023-04-03T09:02:22.425Z,102649.88
2023-04-03T09:04:53.092Z,102650.72
2023-04-03T09:07:47.297Z,102646.13
2023-04-03T09:10:33.488Z,102644.25
2023-04-03T09:13:42.812Z,102654.56
2023-04-03T09:16:39.733Z,102643.31
2023-04-03T09:20:04.764Z,102648.75
2023-04-03T09:22:49.684Z,102650.16
2023-04-03T09:25:34.501Z,102646.63
2023-04-03T09:28:10.996Z,102655.97
2023-04-03T09:30:42.579Z,102658.06
2023-04-03T09:33:15.274Z,102652.34
2023-04-03T09:35:49.136Z,102647.84
2023-04-03T09:38:24.064Z,102656.97
2023-04-03T09:41:17.215Z,102652.41
2023-04-03T09:43:57.027Z,102652.28
2023-04-03T09:46:35.088Z,102639.13
2023-04-03T09:49:09.869Z,102637.13
2023-04-03T09:51:42.235Z,102635.22
2023-04-03T09:54:42.165Z,102639.13
2023-04-03T09:57:14.924Z,102636.53
2023-04-03T10:00:00.771Z,102627.94
2023-04-03T10:02:40.348Z,102636.88
2023-04-03T10:05:43.330Z,102630.16
2023-04-03T10:08:16.442Z,102623.25
2023-04-03T10:11:24.823Z,102630.44
2023-04-03T10:14:02.135Z,102630.38
2023-04-03T10:17:01.018Z,102631.09
2023-04-03T10:20:26.393Z,102633.75
2023-04-03T10:23:51.180Z,102627.72
2023-04-03T10:27:11.908Z,102619.44
2023-04-03T10:30:02.721Z,102624.25
2023-04-03T10:33:00.875Z,102639.16
2023-04-03T10:36:19.938Z,102616.44
2023-04-03T10:39:30.841Z,102617.75
2023-04-03T10:42:48.428Z,102614.41
2023-04-03T10:45:48.412Z,102613.31
2023-04-03T10:49:18.826Z,102606.84
2023-04-03T10:52:11.388Z,102604.19
2023-04-03T10:55:19.033Z,102604.31
2023-04-03T10:57:51.516Z,102601.97
2023-04-03T11:00:44.973Z,102597.47
2023-04-03T11:03:41.830Z,102599.00
2023-04-03T11:06:19.213Z,102600.44
2023-04-03T11:09:07.958Z,102598.94
2023-04-03T11:11:44.164Z,102593.91
2023-04-03T11:14:36.211Z,102591.00
2023-04-03T11:17:24.721Z,102581.97
2023-04-03T11:20:34.540Z,102580.44
2023-04-03T11:23:35.530Z,102585.66
2023-04-03T11:26:26.619Z,102580.19
2023-04-03T11:29:17.882Z,102585.06
2023-04-03T11:32:59.657Z,102581.22
2023-04-03T11:35:33.205Z,102567.53
2023-04-03T11:38:07.710Z,102578.69
2023-04-03T11:40:41.746Z,102572.41
2023-04-03T11:43:23.719Z,102577.91
2023-04-03T11:46:04.267Z,102577.06
2023-04-03T11:48:49.796Z,102575.66
2023-04-03T11:51:30.116Z,102579.72
2023-04-03T11:54:44.923Z,102573.13
2023-04-03T11:58:00.397Z,102575.25
2023-04-03T12:00:51.713Z,102579.50
2023-04-03T12:03:28.107Z,102568.69
2023-04-03T12:06:08.301Z,102566.69
2023-04-03T12:08:43.032Z,102567.22
2023-04-03T12:11:13.209Z,102573.31
2023-04-03T12:14:04.593Z,102564.63
2023-04-03T12:16:38.753Z,102568.22
2023-04-03T12:19:46.053Z,102570.75
2023-04-03T12:22:21.925Z,102575.47
2023-04-03T12:24:55.767Z,102567.03
2023-04-03T12:27:56.081Z,102563.31
2023-04-03T12:30:32.824Z,102572.25
2023-04-03T12:33:33.642Z,102559.78
2023-04-03T12:37:21.466Z,102559.63
2023-04-03T12:40:51.233Z,102556.97
2023-04-03T12:43:59.303Z,102538.69
2023-04-03T12:46:49.782Z,102540.44
2023-04-03T12:49:39.377Z,102544.06
2023-04-03T12:52:41.920Z,102549.16
2023-04-03T12:55:22.263Z,102541.59
2023-04-03T12:57:52.588Z,102541.38
2023-04-03T13:00:40.192Z,102545.66
2023-04-03T13:03:30.069Z,102546.00
2023-04-03T13:06:05.018Z,102544.13
2023-04-03T13:08:35.174Z,102542.72
2023-04-03T13:11:13.481Z,102535.25
2023-04-03T13:14:00.956Z,102540.63
2023-04-03T13:16:31.407Z,102542.41
2023-04-03T13:19:01.701Z,102541.16
2023-04-03T13:21:36.514Z,102540.09
2023-04-03T13:24:15.333Z,102538.97
2023-04-03T13:26:45.991Z,102542.56
2023-04-03T13:29:38.695Z,102525.00
2023-04-03T13:32:24.510Z,102529.44
2023-04-03T13:34:55.724Z,102522.53
2023-04-03T13:37:34.576Z,102525.00
2023-04-03T13:40:09.653Z,102526.34
2023-04-03T13:42:43.305Z,102515.84
2023-04-03T13:45:31.499Z,102512.88
2023-04-03T13:48:24.342Z,102518.81
2023-04-03T13:51:04.451Z,102508.88
2023-04-03T13:53:51.112Z,102504.13
2023-04-03T13:56:38.860Z,102504.72
2023-04-03T13:59:17.261Z,102512.16
2023-04-03T14:02:06.446Z,102506.22
2023-04-03T14:04:59.423Z,102512.25
2023-04-03T14:07:32.358Z,102509.38
2023-04-03T14:10:02.835Z,102507.25
2023-04-03T14:12:42.964Z,102502.94
2023-04-03T14:15:31.049Z,102503.34
2023-04-03T14:18:01.532Z,102508.09
2023-04-03T14:20:32.679Z,102502.44
2023-04-03T14:23:02.689Z,102504.69
2023-04-03T14:25:32.326Z,102500.19
2023-04-03T14:28:13.626Z,102516.34
2023-04-03T14:30:44.837Z,102510.81
2023-04-03T14:33:22.787Z,102511.44
2023-04-03T14:35:55.086Z,102507.00
2023-04-03T14:38:32.317Z,102498.47
2023-04-03T14:41:13.521Z,102508.28
2023-04-03T14:43:47.838Z,102493.38
2023-04-03T14:46:54.377Z,102495.38
2023-04-03T14:49:30.547Z,102495.94
2023-04-03T14:51:59.955Z,102499.28
2023-04-03T14:54:30.304Z,102492.69
2023-04-03T14:57:03.134Z,102483.31
2023-04-03T14:59:34.102Z,102482.66
2023-04-03T15:02:03.267Z,102485.34
2023-04-03T15:04:33.579Z,102486.19
2023-04-03T15:07:04.164Z,102487.66
2023-04-03T15:09:37.095Z,102483.38
2023-04-03T15:14:51.952Z,102486.06
2023-04-03T15:17:25.156Z,102481.88
2023-04-03T15:19:55.359Z,102491.03
2023-04-03T15:22:25.618Z,102485.69
2023-04-03T15:24:56.150Z,102477.72
2023-04-03T15:27:26.342Z,102479.28
2023-04-03T15:29:56.474Z,102483.81
2023-04-03T15:32:26.642Z,102481.44
2023-04-03T15:34:57.030Z,102488.88
2023-04-03T15:37:27.610Z,102492.22
2023-04-03T15:39:57.775Z,102486.97
2023-04-03T15:42:27.987Z,102485.63
2023-04-03T15:44:58.119Z,102483.25
2023-04-03T15:47:29.528Z,102481.09
2023-04-03T15:50:01.075Z,102486.94
2023-04-03T15:52:31.299Z,102481.56
2023-04-03T15:55:01.451Z,102483.09
2023-04-03T16:00:25.250Z,102479.03
2023-04-03T16:03:23.136Z,102487.72
2023-04-03T16:05:54.432Z,102479.34
2023-04-03T16:08:21.962Z,102478.88
2023-04-03T16:10:50.749Z,102479.72
2023-04-03T16:13:18.621Z,102475.06
2023-04-03T16:15:47.499Z,102480.56
2023-04-03T16:18:15.892Z,102486.66
2023-04-03T16:20:44.877Z,102481.66
2023-04-03T16:23:13.438Z,102491.53
2023-04-03T16:25:40.847Z,102483.88
2023-04-03T16:28:09.142Z,102484.28
2023-04-03T16:30:37.580Z,102485.97
2023-04-03T16:33:06.058Z,102479.63
2023-04-03T16:35:34.385Z,102483.38
2023-04-03T16:38:03.405Z,102478.97
2023-04-03T16:40:31.502Z,102483.44
2023-04-03T16:42:59.710Z,102484.06
2023-04-03T16:45:28.793Z,102484.91
2023-04-03T16:47:56.656Z,102482.53
2023-04-03T16:50:25.070Z,102480.25
2023-04-03T16:52:53.415Z,102479.03
2023-04-03T16:55:22.002Z,102483.91
2023-04-03T16:57:50.377Z,102482.56
2023-04-03T17:00:18.913Z,102473.38
2023-04-03T17:02:47.115Z,102478.06
2023-04-03T17:05:15.662Z,102473.06
2023-04-03T17:07:43.964Z,102477.31
2023-04-03T17:10:14.464Z,102467.84
2023-04-03T17:12:43.786Z,102474.97
2023-04-03T17:15:12.435Z,102468.06
2023-04-03T17:17:41.272Z,102462.22
2023-04-03T17:20:11.463Z,102466.13
2023-04-03T17:22:41.719Z,102467.31
2023-04-03T17:25:12.407Z,102471.66
2023-04-03T17:27:42.660Z,102470.06
2023-04-03T17:30:13.364Z,102473.97
2023-04-03T17:32:43.671Z,102481.84
2023-04-03T17:35:13.890Z,102478.31
2023-04-03T17:37:44.060Z,102474.06
2023-04-03T17:40:15.245Z,102476.06
2023-04-03T17:42:45.765Z,102474.84
2023-04-03T17:45:16.268Z,102475.78
2023-04-03T17:47:46.768Z,102479.13
2023-04-03T17:50:17.017Z,102486.13
2023-04-03T17:52:47.868Z,102476.38
2023-04-03T17:55:18.626Z,102485.13
2023-04-03T17:57:48.790Z,102475.91
2023-04-03T18:00:19.360Z,102481.69
2023-04-03T18:02:54.467Z,102487.97
2023-04-03T18:05:30.501Z,102492.00
2023-04-03T18:08:01.971Z,102492.91
2023-04-03T18:10:32.290Z,102498.63
2023-04-03T18:13:04.205Z,102493.38
2023-04-03T18:15:34.757Z,102495.97
2023-04-03T18:18:04.983Z,102491.53
2023-04-03T18:20:35.119Z,102497.31
2023-04-03T18:23:05.802Z,102495.44
2023-04-03T18:25:38.377Z,102501.22
2023-04-03T18:28:09.774Z,102497.66
2023-04-03T18:30:42.750Z,102493.63
2023-04-03T18:33:13.190Z,102498.88
2023-04-03T18:35:43.588Z,102508.84
2023-04-03T18:38:14.464Z,102503.56
2023-04-03T18:40:44.851Z,102506.78
2023-04-03T18:43:14.970Z,102505.09
2023-04-03T18:45:42.560Z,102516.22
2023-04-03T18:48:10.983Z,102506.59
2023-04-03T18:50:39.959Z,102513.47
2023-04-03T18:53:07.501Z,102508.38
2023-04-03T18:55:36.091Z,102510.44
2023-04-03T18:58:04.361Z,102510.88
2023-04-03T19:00:33.698Z,102501.34
2023-04-03T19:03:01.270Z,102508.63
2023-04-03T19:05:29.926Z,102511.34
2023-04-03T19:07:58.984Z,102504.03
2023-04-03T19:10:29.189Z,102507.28
2023-04-03T19:12:59.341Z,102498.69
2023-04-03T19:15:29.950Z,102494.72
2023-04-03T19:17:57.751Z,102499.84
2023-04-03T19:20:27.691Z,102492.13
2023-04-03T19:22:57.900Z,102492.84
2023-04-03T19:25:41.713Z,102494.53
2023-04-03T19:28:13.683Z,102491.81
2023-04-03T19:30:47.294Z,102492.50
2023-04-03T19:33:17.530Z,102488.31
2023-04-03T19:35:47.663Z,102497.13
2023-04-03T19:38:17.617Z,102490.41
2023-04-03T19:40:47.942Z,102495.84
2023-04-03T19:43:17.882Z,102492.75
2023-04-03T19:45:47.979Z,102491.50
2023-04-03T19:48:18.170Z,102489.59
2023-04-03T19:50:47.946Z,102484.69
2023-04-03T19:53:22.281Z,102487.63
2023-04-03T19:55:52.011Z,102485.72
2023-04-03T19:58:20.535Z,102488.47
2023-04-03T20:00:49.100Z,102491.75
2023-04-03T20:03:17.231Z,102488.00
2023-04-03T20:05:47.144Z,102494.28
2023-04-03T20:08:18.454Z,102501.81
2023-04-03T20:10:48.073Z,102501.25
2023-04-03T20:13:18.162Z,102500.63
2023-04-03T20:15:48.075Z,102500.84
2023-04-03T20:18:21.404Z,102493.06
2023-04-03T20:21:02.364Z,102497.91
2023-04-03T20:23:32.051Z,102490.06
2023-04-03T20:26:09.198Z,102495.94
2023-04-03T20:28:40.208Z,102492.78
2023-04-03T20:31:12.122Z,102500.63
2023-04-03T20:33:40.497Z,102491.81
2023-04-03T20:36:10.773Z,102496.75
2023-04-03T20:38:40.711Z,102495.59
2023-04-03T20:41:10.689Z,102490.81
2023-04-03T20:43:43.013Z,102490.78
2023-04-03T20:46:14.420Z,102488.88
2023-04-03T20:48:44.590Z,102484.94
2023-04-03T20:51:20.358Z,102487.03
2023-04-03T20:53:49.549Z,102490.91
2023-04-03T20:56:18.888Z,102485.88
2023-04-03T20:58:49.745Z,102483.75
2023-04-03T21:01:25.326Z,102486.09
2023-04-03T21:04:07.375Z,102484.81
2023-04-03T21:07:52.427Z,102470.97
2023-04-03T21:11:37.586Z,102477.09
2023-04-03T21:15:23.153Z,102477.19
2023-04-03T21:18:08.596Z,102479.91
2023-04-03T21:20:43.675Z,102470.88
2023-04-03T21:23:16.935Z,102461.91
2023-04-03T21:25:48.785Z,102472.63
2023-04-03T21:28:19.224Z,102477.47
2023-04-03T21:30:49.760Z,102472.25
2023-04-03T21:33:19.904Z,102471.63
2023-04-03T21:35:57.719Z,102471.88
2023-04-03T21:38:28.311Z,102466.63
2023-04-03T21:40:59.426Z,102484.34
2023-04-03T21:43:30.556Z,102479.50
2023-04-03T21:46:00.718Z,102477.00
2023-04-03T21:48:31.068Z,102472.97
2023-04-03T21:51:07.010Z,102472.16
2023-04-03T21:53:37.642Z,102474.50
2023-04-03T21:56:06.643Z,102474.50
2023-04-03T21:58:34.495Z,102473.66
2023-04-03T22:01:14.731Z,102480.44
2023-04-03T22:03:47.600Z,102469.69
2023-04-03T22:06:18.173Z,102468.44
2023-04-03T22:08:48.268Z,102477.28
2023-04-03T22:11:18.596Z,102472.47
2023-04-03T22:13:53.846Z,102464.91
2023-04-03T22:16:24.177Z,102462.38
2023-04-03T22:18:55.107Z,102467.22
2023-04-03T22:21:25.698Z,102465.53
2023-04-03T22:23:55.938Z,102466.41
2023-04-03T22:26:27.218Z,102467.44
2023-04-03T22:28:57.449Z,102467.25
2023-04-03T22:31:28.030Z,102470.81
2023-04-03T22:33:58.172Z,102477.72
2023-04-03T22:36:28.259Z,102469.97
2023-04-03T22:39:00.745Z,102472.69
2023-04-03T22:41:28.215Z,102472.88
2023-04-03T22:43:57.956Z,102474.56
2023-04-03T22:46:28.416Z,102474.16
2023-04-03T22:48:59.016Z,102476.03
2023-04-03T22:51:29.130Z,102474.34
2023-04-03T22:53:59.222Z,102472.88
2023-04-03T22:56:29.580Z,102471.41
2023-04-03T22:58:59.811Z,102474.97
2023-04-03T23:01:30.414Z,102476.03
2023-04-03T23:04:00.959Z,102473.06
2023-04-03T23:06:31.328Z,102479.56
2023-04-03T23:09:01.981Z,102485.22
2023-04-03T23:11:32.249Z,102475.59
2023-04-03T23:14:03.266Z,102478.06
2023-04-03T23:16:33.404Z,102474.50
2023-04-03T23:19:03.801Z,102476.16
2023-04-03T23:21:34.023Z,102479.91
2023-04-03T23:24:04.420Z,102479.47
2023-04-03T23:26:34.589Z,102483.47
2023-04-03T23:29:04.780Z,102478.19
2023-04-03T23:31:34.522Z,102474.00
2023-04-03T23:34:04.779Z,102483.19
2023-04-03T23:36:34.579Z,102476.94
2023-04-03T23:39:05.097Z,102477.38
2023-04-03T23:41:35.270Z,102475.47
2023-04-03T23:44:05.026Z,102480.47
2023-04-03T23:46:35.114Z,102481.53
2023-04-03T23:49:05.417Z,102476.72
2023-04-03T23:51:35.154Z,102478.34
2023-04-03T23:54:05.959Z,102470.16
2023-04-03T23:56:35.963Z,102463.63
2023-04-03T23:59:06.118Z,102466.78
